This is the latest recevied weather packets stored in our database for station/object SP8AQK-13. If no packets are shown the sender has not sent any weather packets the latest 10 day(s).
| Time | Temp. | Humidity | Pressure | Rain* | Wind** | Luminosity | Snow |
|---|---|---|---|---|---|---|---|
| 1777474910 | 9.44° C | 37% | 1027.7 hPa | - | - | - | - |
| 1777473709 | 10° C | 36% | 1027.5 hPa | - | - | - | - |
| 1777472508 | 9.44° C | 36% | 1027.6 hPa | - | - | - | - |
| 1777471308 | 11.67° C | 32% | 1027.2 hPa | - | - | - | - |
| 1777470107 | 11.11° C | 32% | 1027.3 hPa | - | - | - | - |
| 1777468906 | 11.67° C | 32% | 1027.1 hPa | - | - | - | - |
| 1777467705 | 13.33° C | 30% | 1026.7 hPa | - | - | - | - |
| 1777466505 | 12.22° C | 31% | 1026.8 hPa | - | - | - | - |
| 1777465304 | 11.67° C | 31% | 1026.9 hPa | - | - | - | - |
| 1777464103 | 12.78° C | 29% | 1026.9 hPa | - | - | - | - |
| 1777462902 | 11.67° C | 31% | 1027 hPa | - | - | - | - |
| 1777461702 | 11.11° C | 33% | 1027.1 hPa | - | - | - | - |
| 1777460501 | 10.56° C | 33% | 1027.2 hPa | - | - | - | - |
| 1777459300 | 11.67° C | 32% | 1027.1 hPa | - | - | - | - |
| 1777458100 | 10.56° C | 36% | 1027.3 hPa | - | - | - | - |
| 1777456899 | 12.22° C | 35% | 1027 hPa | - | - | - | - |
| 1777455698 | 11.11° C | 37% | 1027.4 hPa | - | - | - | - |
| 1777454497 | 10° C | 39% | 1027.5 hPa | - | - | - | - |
| 1777453296 | 12.22° C | 38% | 1027.1 hPa | - | - | - | - |
| 1777452096 | 11.67° C | 37% | 1026.9 hPa | - | - | - | - |
| 1777450895 | 11.11° C | 37% | 1027 hPa | - | - | - | - |
| 1777449694 | 12.78° C | 36% | 1026.7 hPa | - | - | - | - |
| 1777448494 | 11.11° C | 37% | 1026.9 hPa | - | - | - | - |
| 1777447446 | 10.56° C | 42% | 1026.8 hPa | - | - | - | - |
| 1777446246 | 9.44° C | 46% | 1027 hPa | - | - | - | - |
* Rain since midnight (hover to see other rain measurements)
** Current wind speed in m/s (hover to see current wind gust speed)